sensor_id;sensor_type;location;lat;lon;timestamp;P1;durP1;ratioP1;P2;durP2;ratioP2
64826;SDS011;51265;53.972;12.286;2022-10-18T00:01:15;29.55;;;17.48;;
64826;SDS011;51265;53.972;12.286;2022-10-18T00:03:41;23.00;;;15.93;;
64826;SDS011;51265;53.972;12.286;2022-10-18T00:06:07;29.88;;;17.52;;
64826;SDS011;51265;53.972;12.286;2022-10-18T00:08:34;29.38;;;16.08;;
64826;SDS011;51265;53.972;12.286;2022-10-18T00:11:01;27.85;;;17.35;;
64826;SDS011;51265;53.972;12.286;2022-10-18T00:13:27;29.67;;;17.48;;
64826;SDS011;51265;53.972;12.286;2022-10-18T00:15:53;26.52;;;16.45;;
64826;SDS011;51265;53.972;12.286;2022-10-18T00:18:24;26.30;;;16.10;;
64826;SDS011;51265;53.972;12.286;2022-10-18T00:20:57;23.92;;;15.80;;
64826;SDS011;51265;53.972;12.286;2022-10-18T00:23:24;27.77;;;14.30;;
64826;SDS011;51265;53.972;12.286;2022-10-18T00:26:04;23.65;;;14.23;;
64826;SDS011;51265;53.972;12.286;2022-10-18T00:28:58;21.00;;;14.00;;
64826;SDS011;51265;53.972;12.286;2022-10-18T00:31:27;20.65;;;13.65;;
64826;SDS011;51265;53.972;12.286;2022-10-18T00:33:55;20.33;;;12.40;;
64826;SDS011;51265;53.972;12.286;2022-10-18T00:36:23;21.25;;;13.38;;
64826;SDS011;51265;53.972;12.286;2022-10-18T00:38:50;17.33;;;11.93;;
64826;SDS011;51265;53.972;12.286;2022-10-18T00:41:18;20.48;;;11.85;;
64826;SDS011;51265;53.972;12.286;2022-10-18T00:46:37;17.50;;;12.23;;
64826;SDS011;51265;53.972;12.286;2022-10-18T00:52:12;19.85;;;11.57;;
64826;SDS011;51265;53.972;12.286;2022-10-18T00:54:44;18.38;;;11.40;;
64826;SDS011;51265;53.972;12.286;2022-10-18T00:57:12;19.50;;;11.48;;
64826;SDS011;51265;53.972;12.286;2022-10-18T00:59:39;16.15;;;10.43;;
64826;SDS011;51265;53.972;12.286;2022-10-18T01:02:06;18.80;;;11.50;;
64826;SDS011;51265;53.972;12.286;2022-10-18T01:04:33;18.67;;;10.88;;
64826;SDS011;51265;53.972;12.286;2022-10-18T01:10:09;20.65;;;10.18;;
64826;SDS011;51265;53.972;12.286;2022-10-18T01:13:07;15.65;;;9.00;;
64826;SDS011;51265;53.972;12.286;2022-10-18T01:16:00;18.10;;;9.13;;
64826;SDS011;51265;53.972;12.286;2022-10-18T01:18:44;14.88;;;8.45;;
64826;SDS011;51265;53.972;12.286;2022-10-18T01:26:32;16.70;;;9.38;;
64826;SDS011;51265;53.972;12.286;2022-10-18T01:29:18;19.13;;;10.05;;
64826;SDS011;51265;53.972;12.286;2022-10-18T01:32:01;19.70;;;10.18;;
64826;SDS011;51265;53.972;12.286;2022-10-18T01:34:32;20.55;;;10.80;;
64826;SDS011;51265;53.972;12.286;2022-10-18T01:37:02;17.77;;;10.32;;
64826;SDS011;51265;53.972;12.286;2022-10-18T01:39:33;16.25;;;10.25;;
64826;SDS011;51265;53.972;12.286;2022-10-18T01:42:04;20.67;;;10.30;;
64826;SDS011;51265;53.972;12.286;2022-10-18T01:44:34;13.07;;;8.73;;
64826;SDS011;51265;53.972;12.286;2022-10-18T01:47:02;15.13;;;9.18;;
64826;SDS011;51265;53.972;12.286;2022-10-18T01:49:29;19.00;;;9.85;;
64826;SDS011;51265;53.972;12.286;2022-10-18T01:51:55;20.33;;;8.55;;
64826;SDS011;51265;53.972;12.286;2022-10-18T01:54:23;16.27;;;9.18;;
64826;SDS011;51265;53.972;12.286;2022-10-18T01:56:59;21.73;;;9.63;;
64826;SDS011;51265;53.972;12.286;2022-10-18T01:59:45;14.77;;;9.02;;
64826;SDS011;51265;53.972;12.286;2022-10-18T02:03:05;21.08;;;9.25;;
64826;SDS011;51265;53.972;12.286;2022-10-18T02:05:10;12.93;;;7.72;;
64826;SDS011;51265;53.972;12.286;2022-10-18T02:13:00;12.95;;;8.30;;
64826;SDS011;51265;53.972;12.286;2022-10-18T02:15:28;16.75;;;8.75;;
64826;SDS011;51265;53.972;12.286;2022-10-18T02:17:57;16.27;;;7.90;;
64826;SDS011;51265;53.972;12.286;2022-10-18T02:20:23;12.35;;;7.88;;
64826;SDS011;51265;53.972;12.286;2022-10-18T02:22:51;14.50;;;8.35;;
64826;SDS011;51265;53.972;12.286;2022-10-18T02:25:21;20.13;;;8.82;;
64826;SDS011;51265;53.972;12.286;2022-10-18T02:27:53;20.02;;;10.32;;
64826;SDS011;51265;53.972;12.286;2022-10-18T02:30:23;14.82;;;9.35;;
64826;SDS011;51265;53.972;12.286;2022-10-18T02:32:57;16.20;;;9.82;;
64826;SDS011;51265;53.972;12.286;2022-10-18T02:35:30;14.77;;;9.03;;
64826;SDS011;51265;53.972;12.286;2022-10-18T02:38:00;17.10;;;9.27;;
64826;SDS011;51265;53.972;12.286;2022-10-18T02:40:28;17.83;;;9.15;;
64826;SDS011;51265;53.972;12.286;2022-10-18T02:42:55;15.88;;;9.10;;
64826;SDS011;51265;53.972;12.286;2022-10-18T02:45:22;18.38;;;9.02;;
64826;SDS011;51265;53.972;12.286;2022-10-18T02:47:49;14.00;;;9.48;;
64826;SDS011;51265;53.972;12.286;2022-10-18T02:50:16;15.15;;;9.20;;
64826;SDS011;51265;53.972;12.286;2022-10-18T02:52:42;16.38;;;9.43;;
64826;SDS011;51265;53.972;12.286;2022-10-18T02:55:08;11.45;;;8.00;;
64826;SDS011;51265;53.972;12.286;2022-10-18T02:57:35;15.60;;;8.85;;
64826;SDS011;51265;53.972;12.286;2022-10-18T03:00:01;13.38;;;8.10;;
64826;SDS011;51265;53.972;12.286;2022-10-18T03:02:28;14.15;;;7.93;;
64826;SDS011;51265;53.972;12.286;2022-10-18T03:04:53;15.90;;;9.23;;
64826;SDS011;51265;53.972;12.286;2022-10-18T03:07:19;14.30;;;8.23;;
64826;SDS011;51265;53.972;12.286;2022-10-18T03:09:45;14.02;;;9.00;;
64826;SDS011;51265;53.972;12.286;2022-10-18T03:12:11;15.38;;;8.63;;
64826;SDS011;51265;53.972;12.286;2022-10-18T03:14:37;14.43;;;8.32;;
64826;SDS011;51265;53.972;12.286;2022-10-18T03:17:03;19.20;;;9.45;;
64826;SDS011;51265;53.972;12.286;2022-10-18T03:19:29;18.98;;;9.05;;
64826;SDS011;51265;53.972;12.286;2022-10-18T03:21:54;17.88;;;9.45;;
64826;SDS011;51265;53.972;12.286;2022-10-18T03:24:20;16.58;;;10.10;;
64826;SDS011;51265;53.972;12.286;2022-10-18T03:26:46;16.85;;;10.00;;
64826;SDS011;51265;53.972;12.286;2022-10-18T03:29:12;21.67;;;11.27;;
64826;SDS011;51265;53.972;12.286;2022-10-18T03:31:38;23.33;;;11.73;;
64826;SDS011;51265;53.972;12.286;2022-10-18T03:34:04;23.45;;;13.30;;
64826;SDS011;51265;53.972;12.286;2022-10-18T03:36:29;24.75;;;14.10;;
64826;SDS011;51265;53.972;12.286;2022-10-18T03:38:55;25.67;;;14.32;;
64826;SDS011;51265;53.972;12.286;2022-10-18T03:41:21;21.13;;;14.15;;
64826;SDS011;51265;53.972;12.286;2022-10-18T03:43:47;21.48;;;13.90;;
64826;SDS011;51265;53.972;12.286;2022-10-18T03:46:13;27.30;;;15.30;;
64826;SDS011;51265;53.972;12.286;2022-10-18T03:48:38;28.20;;;14.38;;
64826;SDS011;51265;53.972;12.286;2022-10-18T03:51:04;28.40;;;15.27;;
64826;SDS011;51265;53.972;12.286;2022-10-18T03:53:30;29.65;;;15.40;;
64826;SDS011;51265;53.972;12.286;2022-10-18T03:55:56;24.80;;;15.38;;
64826;SDS011;51265;53.972;12.286;2022-10-18T03:58:22;25.10;;;15.10;;
64826;SDS011;51265;53.972;12.286;2022-10-18T04:00:49;30.48;;;15.82;;
64826;SDS011;51265;53.972;12.286;2022-10-18T04:03:19;31.65;;;15.82;;
64826;SDS011;51265;53.972;12.286;2022-10-18T04:05:46;29.90;;;16.60;;
64826;SDS011;51265;53.972;12.286;2022-10-18T04:08:13;30.00;;;16.88;;
64826;SDS011;51265;53.972;12.286;2022-10-18T04:10:39;33.75;;;17.35;;
64826;SDS011;51265;53.972;12.286;2022-10-18T04:13:06;29.40;;;16.75;;
64826;SDS011;51265;53.972;12.286;2022-10-18T04:15:32;38.15;;;17.38;;
64826;SDS011;51265;53.972;12.286;2022-10-18T04:17:59;31.27;;;17.30;;
64826;SDS011;51265;53.972;12.286;2022-10-18T04:20:25;33.05;;;18.23;;
64826;SDS011;51265;53.972;12.286;2022-10-18T04:22:52;33.60;;;18.08;;
64826;SDS011;51265;53.972;12.286;2022-10-18T04:25:20;37.97;;;17.95;;
64826;SDS011;51265;53.972;12.286;2022-10-18T04:27:46;30.95;;;16.95;;
64826;SDS011;51265;53.972;12.286;2022-10-18T04:30:13;42.92;;;17.80;;
64826;SDS011;51265;53.972;12.286;2022-10-18T04:32:39;39.42;;;17.85;;
64826;SDS011;51265;53.972;12.286;2022-10-18T04:35:05;35.63;;;18.25;;
64826;SDS011;51265;53.972;12.286;2022-10-18T04:37:32;41.88;;;18.83;;
64826;SDS011;51265;53.972;12.286;2022-10-18T04:39:58;32.13;;;17.33;;
64826;SDS011;51265;53.972;12.286;2022-10-18T04:42:24;34.50;;;19.30;;
64826;SDS011;51265;53.972;12.286;2022-10-18T04:44:50;36.15;;;19.30;;
64826;SDS011;51265;53.972;12.286;2022-10-18T04:47:15;43.28;;;20.33;;
64826;SDS011;51265;53.972;12.286;2022-10-18T04:49:42;38.08;;;19.35;;
64826;SDS011;51265;53.972;12.286;2022-10-18T04:52:08;40.40;;;20.25;;
64826;SDS011;51265;53.972;12.286;2022-10-18T04:54:34;43.83;;;20.73;;
64826;SDS011;51265;53.972;12.286;2022-10-18T04:57:00;40.03;;;20.08;;
64826;SDS011;51265;53.972;12.286;2022-10-18T04:59:26;41.50;;;21.45;;
64826;SDS011;51265;53.972;12.286;2022-10-18T05:01:52;51.40;;;22.30;;
64826;SDS011;51265;53.972;12.286;2022-10-18T05:04:18;45.15;;;21.52;;
64826;SDS011;51265;53.972;12.286;2022-10-18T05:06:44;49.83;;;22.98;;
64826;SDS011;51265;53.972;12.286;2022-10-18T05:09:10;51.40;;;23.55;;
64826;SDS011;51265;53.972;12.286;2022-10-18T05:11:36;58.15;;;24.40;;
64826;SDS011;51265;53.972;12.286;2022-10-18T05:14:02;61.20;;;25.02;;
64826;SDS011;51265;53.972;12.286;2022-10-18T05:16:27;52.83;;;23.45;;
64826;SDS011;51265;53.972;12.286;2022-10-18T05:18:53;55.65;;;24.63;;
64826;SDS011;51265;53.972;12.286;2022-10-18T05:21:19;54.35;;;23.35;;
64826;SDS011;51265;53.972;12.286;2022-10-18T05:23:45;56.10;;;25.42;;
64826;SDS011;51265;53.972;12.286;2022-10-18T05:26:11;54.85;;;22.98;;
64826;SDS011;51265;53.972;12.286;2022-10-18T05:28:36;60.05;;;24.35;;
64826;SDS011;51265;53.972;12.286;2022-10-18T05:31:03;56.33;;;24.50;;
64826;SDS011;51265;53.972;12.286;2022-10-18T05:33:30;54.00;;;24.88;;
64826;SDS011;51265;53.972;12.286;2022-10-18T05:35:57;50.60;;;24.50;;
64826;SDS011;51265;53.972;12.286;2022-10-18T05:38:23;53.13;;;23.17;;
64826;SDS011;51265;53.972;12.286;2022-10-18T05:40:49;48.83;;;23.38;;
64826;SDS011;51265;53.972;12.286;2022-10-18T05:43:15;50.25;;;24.17;;
64826;SDS011;51265;53.972;12.286;2022-10-18T05:45:48;52.22;;;21.52;;
64826;SDS011;51265;53.972;12.286;2022-10-18T05:48:20;51.28;;;21.48;;
64826;SDS011;51265;53.972;12.286;2022-10-18T05:50:46;56.75;;;22.20;;
64826;SDS011;51265;53.972;12.286;2022-10-18T05:53:11;47.90;;;21.25;;
64826;SDS011;51265;53.972;12.286;2022-10-18T05:55:37;45.55;;;21.73;;
64826;SDS011;51265;53.972;12.286;2022-10-18T05:58:03;41.17;;;21.08;;
64826;SDS011;51265;53.972;12.286;2022-10-18T06:00:30;51.67;;;22.95;;
64826;SDS011;51265;53.972;12.286;2022-10-18T06:02:55;53.97;;;23.17;;
64826;SDS011;51265;53.972;12.286;2022-10-18T06:05:21;49.95;;;23.25;;
64826;SDS011;51265;53.972;12.286;2022-10-18T06:07:47;52.58;;;21.88;;
64826;SDS011;51265;53.972;12.286;2022-10-18T06:10:13;59.90;;;23.77;;
64826;SDS011;51265;53.972;12.286;2022-10-18T06:12:39;67.13;;;26.80;;
64826;SDS011;51265;53.972;12.286;2022-10-18T06:15:05;59.75;;;24.63;;
64826;SDS011;51265;53.972;12.286;2022-10-18T06:17:31;65.85;;;26.05;;
64826;SDS011;51265;53.972;12.286;2022-10-18T06:20:01;49.58;;;23.83;;
64826;SDS011;51265;53.972;12.286;2022-10-18T06:22:27;60.22;;;25.45;;
64826;SDS011;51265;53.972;12.286;2022-10-18T06:24:53;76.30;;;25.67;;
64826;SDS011;51265;53.972;12.286;2022-10-18T06:27:18;73.53;;;25.88;;
64826;SDS011;51265;53.972;12.286;2022-10-18T06:29:44;90.28;;;25.42;;
64826;SDS011;51265;53.972;12.286;2022-10-18T06:32:10;55.28;;;23.50;;
64826;SDS011;51265;53.972;12.286;2022-10-18T06:34:36;48.75;;;24.15;;
64826;SDS011;51265;53.972;12.286;2022-10-18T06:37:02;78.05;;;25.88;;
64826;SDS011;51265;53.972;12.286;2022-10-18T06:39:28;59.55;;;25.35;;
64826;SDS011;51265;53.972;12.286;2022-10-18T06:41:53;62.50;;;26.95;;
64826;SDS011;51265;53.972;12.286;2022-10-18T06:44:19;60.20;;;24.95;;
64826;SDS011;51265;53.972;12.286;2022-10-18T06:46:46;58.25;;;24.48;;
64826;SDS011;51265;53.972;12.286;2022-10-18T06:49:13;63.85;;;26.55;;
64826;SDS011;51265;53.972;12.286;2022-10-18T06:51:41;67.82;;;26.70;;
64826;SDS011;51265;53.972;12.286;2022-10-18T06:54:07;70.88;;;26.63;;
64826;SDS011;51265;53.972;12.286;2022-10-18T06:56:33;69.65;;;26.70;;
64826;SDS011;51265;53.972;12.286;2022-10-18T06:59:00;84.05;;;29.73;;
64826;SDS011;51265;53.972;12.286;2022-10-18T07:01:26;73.15;;;28.38;;
64826;SDS011;51265;53.972;12.286;2022-10-18T07:03:53;69.97;;;28.23;;
64826;SDS011;51265;53.972;12.286;2022-10-18T07:06:20;78.13;;;29.42;;
64826;SDS011;51265;53.972;12.286;2022-10-18T07:08:48;81.88;;;29.10;;
64826;SDS011;51265;53.972;12.286;2022-10-18T07:11:16;86.78;;;28.40;;
64826;SDS011;51265;53.972;12.286;2022-10-18T07:13:44;71.75;;;28.33;;
64826;SDS011;51265;53.972;12.286;2022-10-18T07:16:11;81.50;;;30.67;;
64826;SDS011;51265;53.972;12.286;2022-10-18T07:18:39;80.18;;;29.02;;
64826;SDS011;51265;53.972;12.286;2022-10-18T07:21:20;68.93;;;27.42;;
64826;SDS011;51265;53.972;12.286;2022-10-18T07:23:48;66.55;;;29.00;;
64826;SDS011;51265;53.972;12.286;2022-10-18T07:26:16;63.22;;;26.33;;
64826;SDS011;51265;53.972;12.286;2022-10-18T07:28:48;70.60;;;27.27;;
64826;SDS011;51265;53.972;12.286;2022-10-18T07:31:16;66.38;;;27.20;;
64826;SDS011;51265;53.972;12.286;2022-10-18T07:33:41;59.15;;;26.80;;
64826;SDS011;51265;53.972;12.286;2022-10-18T07:36:08;63.67;;;25.95;;
64826;SDS011;51265;53.972;12.286;2022-10-18T07:38:35;57.13;;;26.50;;
64826;SDS011;51265;53.972;12.286;2022-10-18T07:41:02;57.63;;;25.88;;
64826;SDS011;51265;53.972;12.286;2022-10-18T07:43:31;51.45;;;23.90;;
64826;SDS011;51265;53.972;12.286;2022-10-18T07:45:59;53.88;;;24.80;;
64826;SDS011;51265;53.972;12.286;2022-10-18T07:48:26;56.38;;;26.20;;
64826;SDS011;51265;53.972;12.286;2022-10-18T07:50:52;59.22;;;25.73;;
64826;SDS011;51265;53.972;12.286;2022-10-18T07:53:18;60.08;;;26.58;;
64826;SDS011;51265;53.972;12.286;2022-10-18T07:55:44;57.58;;;26.48;;
64826;SDS011;51265;53.972;12.286;2022-10-18T07:58:10;58.10;;;25.30;;
64826;SDS011;51265;53.972;12.286;2022-10-18T08:00:36;61.00;;;25.75;;
64826;SDS011;51265;53.972;12.286;2022-10-18T08:03:03;49.15;;;24.27;;
64826;SDS011;51265;53.972;12.286;2022-10-18T08:05:29;54.72;;;24.33;;
64826;SDS011;51265;53.972;12.286;2022-10-18T08:07:54;52.78;;;23.08;;
64826;SDS011;51265;53.972;12.286;2022-10-18T08:10:21;45.42;;;23.00;;
64826;SDS011;51265;53.972;12.286;2022-10-18T08:12:48;49.13;;;23.27;;
64826;SDS011;51265;53.972;12.286;2022-10-18T08:15:15;46.10;;;22.25;;
64826;SDS011;51265;53.972;12.286;2022-10-18T08:17:42;50.22;;;22.65;;
64826;SDS011;51265;53.972;12.286;2022-10-18T08:20:10;47.40;;;22.75;;
64826;SDS011;51265;53.972;12.286;2022-10-18T08:22:36;57.53;;;23.80;;
64826;SDS011;51265;53.972;12.286;2022-10-18T08:25:02;48.92;;;23.27;;
64826;SDS011;51265;53.972;12.286;2022-10-18T08:27:28;52.97;;;24.23;;
64826;SDS011;51265;53.972;12.286;2022-10-18T08:29:54;54.38;;;23.50;;
64826;SDS011;51265;53.972;12.286;2022-10-18T08:32:20;47.60;;;22.35;;
64826;SDS011;51265;53.972;12.286;2022-10-18T08:34:46;43.70;;;22.33;;
64826;SDS011;51265;53.972;12.286;2022-10-18T08:37:12;40.83;;;21.08;;
64826;SDS011;51265;53.972;12.286;2022-10-18T08:39:37;44.55;;;22.85;;
64826;SDS011;51265;53.972;12.286;2022-10-18T08:42:15;43.15;;;21.38;;
64826;SDS011;51265;53.972;12.286;2022-10-18T08:47:15;39.22;;;20.60;;
64826;SDS011;51265;53.972;12.286;2022-10-18T08:49:48;41.35;;;20.40;;
64826;SDS011;51265;53.972;12.286;2022-10-18T08:52:17;43.15;;;20.45;;
64826;SDS011;51265;53.972;12.286;2022-10-18T08:54:51;34.55;;;18.80;;
64826;SDS011;51265;53.972;12.286;2022-10-18T08:57:23;41.03;;;19.20;;
64826;SDS011;51265;53.972;12.286;2022-10-18T08:59:49;33.13;;;17.40;;
64826;SDS011;51265;53.972;12.286;2022-10-18T09:02:16;34.78;;;16.45;;
64826;SDS011;51265;53.972;12.286;2022-10-18T09:11:09;27.00;;;15.50;;
64826;SDS011;51265;53.972;12.286;2022-10-18T09:16:48;25.10;;;14.25;;
64826;SDS011;51265;53.972;12.286;2022-10-18T09:22:13;26.00;;;14.70;;
64826;SDS011;51265;53.972;12.286;2022-10-18T09:24:49;24.23;;;13.15;;
64826;SDS011;51265;53.972;12.286;2022-10-18T09:27:19;25.10;;;13.68;;
64826;SDS011;51265;53.972;12.286;2022-10-18T09:29:55;24.52;;;14.40;;
64826;SDS011;51265;53.972;12.286;2022-10-18T09:35:28;23.95;;;13.07;;
64826;SDS011;51265;53.972;12.286;2022-10-18T09:38:03;28.27;;;14.25;;
64826;SDS011;51265;53.972;12.286;2022-10-18T09:40:34;27.15;;;15.68;;
64826;SDS011;51265;53.972;12.286;2022-10-18T09:43:09;33.95;;;17.13;;
64826;SDS011;51265;53.972;12.286;2022-10-18T09:45:42;27.05;;;16.35;;
64826;SDS011;51265;53.972;12.286;2022-10-18T09:48:17;25.67;;;14.65;;
64826;SDS011;51265;53.972;12.286;2022-10-18T09:50:53;21.95;;;13.15;;
64826;SDS011;51265;53.972;12.286;2022-10-18T09:56:01;23.38;;;13.07;;
64826;SDS011;51265;53.972;12.286;2022-10-18T10:01:06;28.02;;;12.80;;
64826;SDS011;51265;53.972;12.286;2022-10-18T10:03:33;26.40;;;13.60;;
64826;SDS011;51265;53.972;12.286;2022-10-18T10:06:45;21.85;;;13.23;;
64826;SDS011;51265;53.972;12.286;2022-10-18T10:08:54;27.40;;;13.90;;
64826;SDS011;51265;53.972;12.286;2022-10-18T10:11:38;24.27;;;13.18;;
64826;SDS011;51265;53.972;12.286;2022-10-18T10:17:21;20.85;;;12.30;;
64826;SDS011;51265;53.972;12.286;2022-10-18T10:19:31;24.75;;;11.82;;
64826;SDS011;51265;53.972;12.286;2022-10-18T10:22:09;21.25;;;12.80;;
64826;SDS011;51265;53.972;12.286;2022-10-18T10:27:04;20.08;;;11.18;;
64826;SDS011;51265;53.972;12.286;2022-10-18T10:32:14;19.20;;;10.82;;
64826;SDS011;51265;53.972;12.286;2022-10-18T10:34:42;17.73;;;10.73;;
64826;SDS011;51265;53.972;12.286;2022-10-18T10:42:30;16.60;;;8.95;;
64826;SDS011;51265;53.972;12.286;2022-10-18T10:44:57;21.17;;;8.63;;
64826;SDS011;51265;53.972;12.286;2022-10-18T10:47:27;15.57;;;8.73;;
64826;SDS011;51265;53.972;12.286;2022-10-18T10:49:57;19.63;;;9.40;;
64826;SDS011;51265;53.972;12.286;2022-10-18T10:52:24;21.88;;;9.48;;
64826;SDS011;51265;53.972;12.286;2022-10-18T10:54:52;21.20;;;9.13;;
64826;SDS011;51265;53.972;12.286;2022-10-18T10:57:25;18.65;;;9.63;;
64826;SDS011;51265;53.972;12.286;2022-10-18T10:59:53;21.75;;;10.13;;
64826;SDS011;51265;53.972;12.286;2022-10-18T11:04:53;24.17;;;10.65;;
64826;SDS011;51265;53.972;12.286;2022-10-18T11:10:07;20.50;;;10.60;;
64826;SDS011;51265;53.972;12.286;2022-10-18T11:12:39;21.70;;;11.20;;
64826;SDS011;51265;53.972;12.286;2022-10-18T11:18:03;24.70;;;12.60;;
64826;SDS011;51265;53.972;12.286;2022-10-18T11:20:52;29.48;;;11.82;;
64826;SDS011;51265;53.972;12.286;2022-10-18T11:23:36;25.02;;;12.40;;
64826;SDS011;51265;53.972;12.286;2022-10-18T11:31:45;20.53;;;13.27;;
64826;SDS011;51265;53.972;12.286;2022-10-18T11:36:59;31.65;;;16.05;;
64826;SDS011;51265;53.972;12.286;2022-10-18T11:39:42;27.83;;;14.80;;
64826;SDS011;51265;53.972;12.286;2022-10-18T11:48:03;22.50;;;8.77;;
64826;SDS011;51265;53.972;12.286;2022-10-18T11:50:42;16.33;;;8.10;;
64826;SDS011;51265;53.972;12.286;2022-10-18T11:53:26;15.13;;;7.28;;
64826;SDS011;51265;53.972;12.286;2022-10-18T12:01:06;17.77;;;7.35;;
64826;SDS011;51265;53.972;12.286;2022-10-18T12:06:17;19.40;;;7.72;;
64826;SDS011;51265;53.972;12.286;2022-10-18T12:08:46;19.10;;;6.97;;
64826;SDS011;51265;53.972;12.286;2022-10-18T12:11:23;19.45;;;6.72;;
64826;SDS011;51265;53.972;12.286;2022-10-18T12:14:02;16.10;;;7.18;;
64826;SDS011;51265;53.972;12.286;2022-10-18T12:16:33;12.43;;;5.97;;
64826;SDS011;51265;53.972;12.286;2022-10-18T12:19:06;15.48;;;6.20;;
64826;SDS011;51265;53.972;12.286;2022-10-18T12:21:43;17.08;;;5.82;;
64826;SDS011;51265;53.972;12.286;2022-10-18T12:24:25;13.10;;;5.60;;
64826;SDS011;51265;53.972;12.286;2022-10-18T12:26:59;16.17;;;5.35;;
64826;SDS011;51265;53.972;12.286;2022-10-18T12:29:38;18.52;;;5.07;;
64826;SDS011;51265;53.972;12.286;2022-10-18T12:32:13;14.38;;;5.22;;
64826;SDS011;51265;53.972;12.286;2022-10-18T12:34:59;16.23;;;5.90;;
64826;SDS011;51265;53.972;12.286;2022-10-18T12:37:38;14.07;;;5.65;;
64826;SDS011;51265;53.972;12.286;2022-10-18T12:40:22;14.80;;;5.50;;
64826;SDS011;51265;53.972;12.286;2022-10-18T12:42:56;14.55;;;5.75;;
64826;SDS011;51265;53.972;12.286;2022-10-18T12:45:29;15.05;;;5.25;;
64826;SDS011;51265;53.972;12.286;2022-10-18T12:47:58;16.85;;;5.50;;
64826;SDS011;51265;53.972;12.286;2022-10-18T12:55:35;11.77;;;5.25;;
64826;SDS011;51265;53.972;12.286;2022-10-18T13:05:52;14.68;;;4.95;;
64826;SDS011;51265;53.972;12.286;2022-10-18T13:16:45;9.25;;;4.30;;
64826;SDS011;51265;53.972;12.286;2022-10-18T13:19:45;14.30;;;4.78;;
64826;SDS011;51265;53.972;12.286;2022-10-18T13:22:33;19.50;;;4.55;;
64826;SDS011;51265;53.972;12.286;2022-10-18T13:30:30;14.05;;;3.85;;
64826;SDS011;51265;53.972;12.286;2022-10-18T13:38:46;9.85;;;3.65;;
64826;SDS011;51265;53.972;12.286;2022-10-18T13:41:28;13.65;;;3.33;;
64826;SDS011;51265;53.972;12.286;2022-10-18T14:05:46;8.93;;;3.03;;
64826;SDS011;51265;53.972;12.286;2022-10-18T14:08:19;14.73;;;2.75;;
64826;SDS011;51265;53.972;12.286;2022-10-18T14:13:29;13.13;;;3.15;;
64826;SDS011;51265;53.972;12.286;2022-10-18T14:16:04;14.00;;;2.75;;
64826;SDS011;51265;53.972;12.286;2022-10-18T14:18:50;12.40;;;3.13;;
64826;SDS011;51265;53.972;12.286;2022-10-18T14:21:23;8.52;;;2.53;;
64826;SDS011;51265;53.972;12.286;2022-10-18T14:23:54;8.52;;;2.30;;
64826;SDS011;51265;53.972;12.286;2022-10-18T14:26:20;13.50;;;2.67;;
64826;SDS011;51265;53.972;12.286;2022-10-18T14:29:05;10.95;;;2.58;;
64826;SDS011;51265;53.972;12.286;2022-10-18T14:31:40;9.07;;;2.28;;
64826;SDS011;51265;53.972;12.286;2022-10-18T14:34:10;9.98;;;2.60;;
64826;SDS011;51265;53.972;12.286;2022-10-18T14:36:40;11.93;;;2.67;;
64826;SDS011;51265;53.972;12.286;2022-10-18T14:39:14;8.88;;;2.42;;
64826;SDS011;51265;53.972;12.286;2022-10-18T14:42:02;11.23;;;2.22;;
64826;SDS011;51265;53.972;12.286;2022-10-18T14:44:31;8.48;;;2.20;;
64826;SDS011;51265;53.972;12.286;2022-10-18T14:47:00;8.98;;;2.15;;
64826;SDS011;51265;53.972;12.286;2022-10-18T14:49:41;13.57;;;2.65;;
64826;SDS011;51265;53.972;12.286;2022-10-18T14:52:10;10.35;;;2.10;;
64826;SDS011;51265;53.972;12.286;2022-10-18T14:54:38;10.45;;;2.35;;
64826;SDS011;51265;53.972;12.286;2022-10-18T14:57:04;10.93;;;1.95;;
64826;SDS011;51265;53.972;12.286;2022-10-18T14:59:39;10.48;;;2.00;;
64826;SDS011;51265;53.972;12.286;2022-10-18T15:02:11;7.45;;;1.95;;
64826;SDS011;51265;53.972;12.286;2022-10-18T15:04:39;8.60;;;2.00;;
64826;SDS011;51265;53.972;12.286;2022-10-18T15:07:12;8.70;;;1.70;;
64826;SDS011;51265;53.972;12.286;2022-10-18T15:09:41;10.98;;;2.10;;
64826;SDS011;51265;53.972;12.286;2022-10-18T15:12:10;9.98;;;1.80;;
64826;SDS011;51265;53.972;12.286;2022-10-18T15:14:39;11.45;;;1.95;;
64826;SDS011;51265;53.972;12.286;2022-10-18T15:17:10;12.52;;;2.10;;
64826;SDS011;51265;53.972;12.286;2022-10-18T15:20:02;12.38;;;2.13;;
64826;SDS011;51265;53.972;12.286;2022-10-18T15:22:45;9.48;;;2.10;;
64826;SDS011;51265;53.972;12.286;2022-10-18T15:27:51;7.85;;;1.60;;
64826;SDS011;51265;53.972;12.286;2022-10-18T15:35:26;11.73;;;2.38;;
64826;SDS011;51265;53.972;12.286;2022-10-18T15:37:54;13.80;;;2.08;;
64826;SDS011;51265;53.972;12.286;2022-10-18T15:42:48;17.85;;;2.40;;
64826;SDS011;51265;53.972;12.286;2022-10-18T15:45:27;11.50;;;2.40;;
64826;SDS011;51265;53.972;12.286;2022-10-18T15:58:46;14.38;;;2.22;;
64826;SDS011;51265;53.972;12.286;2022-10-18T16:04:27;8.15;;;1.70;;
64826;SDS011;51265;53.972;12.286;2022-10-18T16:06:55;8.88;;;1.70;;
64826;SDS011;51265;53.972;12.286;2022-10-18T16:09:23;12.77;;;1.80;;
64826;SDS011;51265;53.972;12.286;2022-10-18T16:11:50;12.35;;;1.98;;
64826;SDS011;51265;53.972;12.286;2022-10-18T16:14:19;12.30;;;2.00;;
64826;SDS011;51265;53.972;12.286;2022-10-18T16:16:46;14.95;;;2.40;;
64826;SDS011;51265;53.972;12.286;2022-10-18T16:19:15;11.93;;;2.20;;
64826;SDS011;51265;53.972;12.286;2022-10-18T16:21:43;13.13;;;2.40;;
64826;SDS011;51265;53.972;12.286;2022-10-18T16:24:27;11.05;;;2.30;;
64826;SDS011;51265;53.972;12.286;2022-10-18T16:26:52;11.90;;;1.95;;
64826;SDS011;51265;53.972;12.286;2022-10-18T16:29:19;11.00;;;2.60;;
64826;SDS011;51265;53.972;12.286;2022-10-18T16:31:48;8.45;;;2.15;;
64826;SDS011;51265;53.972;12.286;2022-10-18T16:34:16;11.68;;;1.80;;
64826;SDS011;51265;53.972;12.286;2022-10-18T16:36:42;10.07;;;1.70;;
64826;SDS011;51265;53.972;12.286;2022-10-18T16:39:13;13.40;;;1.95;;
64826;SDS011;51265;53.972;12.286;2022-10-18T16:41:41;16.15;;;2.08;;
64826;SDS011;51265;53.972;12.286;2022-10-18T16:44:08;9.70;;;2.20;;
64826;SDS011;51265;53.972;12.286;2022-10-18T16:46:34;9.75;;;2.17;;
64826;SDS011;51265;53.972;12.286;2022-10-18T16:49:00;9.55;;;1.77;;
64826;SDS011;51265;53.972;12.286;2022-10-18T16:51:26;12.52;;;1.55;;
64826;SDS011;51265;53.972;12.286;2022-10-18T16:53:52;17.70;;;2.80;;
64826;SDS011;51265;53.972;12.286;2022-10-18T16:56:19;10.20;;;1.95;;
64826;SDS011;51265;53.972;12.286;2022-10-18T16:58:55;13.07;;;2.30;;
64826;SDS011;51265;53.972;12.286;2022-10-18T17:01:21;14.20;;;1.75;;
64826;SDS011;51265;53.972;12.286;2022-10-18T17:03:48;15.77;;;1.98;;
64826;SDS011;51265;53.972;12.286;2022-10-18T17:06:18;9.82;;;2.03;;
64826;SDS011;51265;53.972;12.286;2022-10-18T17:08:48;12.57;;;1.90;;
64826;SDS011;51265;53.972;12.286;2022-10-18T17:11:15;11.35;;;1.80;;
64826;SDS011;51265;53.972;12.286;2022-10-18T17:13:42;7.88;;;1.90;;
64826;SDS011;51265;53.972;12.286;2022-10-18T17:16:30;8.95;;;1.95;;
64826;SDS011;51265;53.972;12.286;2022-10-18T17:18:57;11.18;;;1.38;;